Time;durP1;ratioP1;P1;durP2;ratioP2;P2;SDS_P1;SDS_P2;PMS_P1;PMS_P2;Temp;Humidity;BMP_temperature;BMP_pressure;BME280_temperature;BME280_humidity;BME280_pressure;Samples;Min_cycle;Max_cycle;Signal;HPM_P1;HPM_P2
2024/01/11 00:02:17;;;;;;;22.80;14.10;;;;;;;-0.36;100.00;101361.30;105906;1251;72776;-73
2024/01/11 00:04:44;;;;;;;27.60;16.50;;;;;;;-0.33;100.00;101357.85;106003;1251;60477;-73
2024/01/11 00:07:11;;;;;;;25.80;16.40;;;;;;;-0.32;100.00;101357.31;105940;1250;60474;-73
2024/01/11 00:09:40;;;;;;;24.80;15.70;;;;;;;-0.31;100.00;101355.59;105906;1251;73828;-73
2024/01/11 00:12:07;;;;;;;27.10;16.30;;;;;;;-0.33;100.00;101354.06;105893;1251;61366;-72
2024/01/11 00:14:35;;;;;;;30.00;17.20;;;;;;;-0.35;100.00;101350.13;105804;1255;72504;-73
2024/01/11 00:17:02;;;;;;;24.90;16.40;;;;;;;-0.35;100.00;101349.09;106001;1254;60481;-74
2024/01/11 00:19:30;;;;;;;30.50;18.00;;;;;;;-0.36;100.00;101346.86;105965;1251;60504;-73
2024/01/11 00:21:56;;;;;;;26.70;16.10;;;;;;;-0.44;100.00;101341.55;105953;1254;73579;-71
2024/01/11 00:24:23;;;;;;;26.20;16.30;;;;;;;-0.47;100.00;101339.34;105851;1251;62358;-72
2024/01/11 00:26:51;;;;;;;27.20;16.00;;;;;;;-0.49;100.00;101331.43;105917;1254;72640;-71
2024/01/11 00:29:17;;;;;;;21.70;15.10;;;;;;;-0.51;100.00;101326.62;105845;1254;60539;-72
2024/01/11 00:31:45;;;;;;;26.50;16.80;;;;;;;-0.51;100.00;101320.28;105835;1251;60540;-73
2024/01/11 00:34:11;;;;;;;25.50;16.60;;;;;;;-0.52;100.00;101316.84;105832;1251;73925;-73
2024/01/11 00:36:39;;;;;;;30.40;16.70;;;;;;;-0.54;100.00;101313.77;105971;1254;63886;-72
2024/01/11 00:39:07;;;;;;;28.20;16.60;;;;;;;-0.57;100.00;101306.55;105842;1251;72700;-73
2024/01/11 00:41:35;;;;;;;29.30;17.70;;;;;;;-0.59;100.00;101297.30;105840;1250;61160;-72
2024/01/11 00:44:02;;;;;;;24.90;15.10;;;;;;;-0.62;100.00;101289.06;105940;1250;60492;-72
2024/01/11 00:46:29;;;;;;;27.30;16.20;;;;;;;-0.64;100.00;101279.45;105869;1256;73834;-73
2024/01/11 00:48:56;;;;;;;24.50;15.40;;;;;;;-0.68;100.00;101275.00;105917;1250;63717;-71
2024/01/11 00:51:24;;;;;;;28.50;16.00;;;;;;;-0.72;100.00;101270.20;105926;1254;72665;-73
2024/01/11 00:53:51;;;;;;;18.70;13.50;;;;;;;-0.74;100.00;101267.46;105913;1254;60467;-73
2024/01/11 00:56:18;;;;;;;24.10;14.50;;;;;;;-0.72;100.00;101263.34;105873;1251;60529;-72
2024/01/11 00:58:46;;;;;;;24.00;15.30;;;;;;;-0.69;100.00;101257.31;105777;1251;73834;-74
2024/01/11 01:01:13;;;;;;;26.90;15.70;;;;;;;-0.69;100.00;101243.07;105879;1250;63781;-73
2024/01/11 01:03:40;;;;;;;25.70;16.20;;;;;;;-0.69;100.00;101239.98;105883;1251;71354;-73
2024/01/11 01:06:08;;;;;;;22.10;14.90;;;;;;;-0.71;100.00;101230.36;105912;1254;61147;-71
2024/01/11 01:08:35;;;;;;;20.30;13.30;;;;;;;-0.74;100.00;101222.31;105962;1252;60547;-72
2024/01/11 01:11:02;;;;;;;24.20;13.50;;;;;;;-0.77;100.00;101220.95;105884;1250;74283;-72
2024/01/11 01:13:29;;;;;;;19.60;13.80;;;;;;;-0.79;100.00;101215.81;106012;1254;62949;-72
2024/01/11 01:15:56;;;;;;;25.60;14.60;;;;;;;-0.77;100.00;101205.50;106015;1251;74949;-72
2024/01/11 01:18:23;;;;;;;20.20;13.40;;;;;;;-0.77;100.00;101193.15;105868;1257;60597;-72
2024/01/11 01:20:50;;;;;;;23.10;13.30;;;;;;;-0.79;100.00;101186.63;105897;1254;60457;-71
2024/01/11 02:27:10;;;;;;;15.40;9.70;;;;;;;-0.95;100.00;101027.59;104650;1292;600320;-70
2024/01/11 02:29:38;;;;;;;12.80;9.00;;;;;;;-0.99;100.00;101022.48;105428;1271;59577;-70
2024/01/11 02:32:06;;;;;;;16.80;10.90;;;;;;;-1.01;100.00;101014.95;105280;1266;59258;-70
2024/01/11 02:34:34;;;;;;;17.50;9.80;;;;;;;-1.03;100.00;101008.77;105152;1266;71127;-71
2024/01/11 02:37:01;;;;;;;13.90;9.70;;;;;;;-1.04;100.00;101007.23;105359;1266;64114;-72
2024/01/11 02:39:29;;;;;;;11.30;8.60;;;;;;;-1.05;100.00;101003.81;106262;1266;73071;-70
2024/01/11 02:41:57;;;;;;;13.90;9.60;;;;;;;-1.05;100.00;101009.46;107151;1269;159884;-72
2024/01/11 02:44:25;;;;;;;13.90;10.80;;;;;;;-1.03;100.00;101001.58;105643;1263;59742;-73
2024/01/11 02:46:53;;;;;;;12.20;8.70;;;;;;;-1.00;100.00;100997.26;104968;1268;74397;-74
2024/01/11 02:49:21;;;;;;;15.10;9.00;;;;;;;-0.97;100.00;100997.94;105589;1253;63108;-72
2024/01/11 02:51:49;;;;;;;17.00;9.40;;;;;;;-0.98;100.00;100994.84;105654;1257;71431;-71
2024/01/11 02:54:17;;;;;;;14.80;10.20;;;;;;;-0.97;100.00;100995.02;105862;1253;59634;-72
2024/01/11 02:56:44;;;;;;;13.60;9.50;;;;;;;-0.92;100.00;100994.98;105780;1259;61733;-73
2024/01/11 02:59:12;;;;;;;29.70;20.50;;;;;;;-0.89;100.00;100995.46;105906;1253;71986;-75
2024/01/11 03:01:40;;;;;;;13.40;9.80;;;;;;;-0.87;100.00;100991.50;105658;1253;62572;-73
2024/01/11 03:04:08;;;;;;;15.20;9.80;;;;;;;-0.88;100.00;100990.14;105661;1258;73387;-74
2024/01/11 03:06:35;;;;;;;15.90;9.80;;;;;;;-0.91;100.00;100985.86;105871;1259;59743;-71
2024/01/11 03:09:03;;;;;;;14.30;9.00;;;;;;;-0.98;100.00;100976.48;105766;1259;59549;-72
2024/01/11 03:11:31;;;;;;;16.50;11.10;;;;;;;-1.04;100.00;100977.89;105885;1257;73249;-74
2024/01/11 03:13:58;;;;;;;14.60;9.30;;;;;;;-1.06;100.00;100972.23;105802;1258;63584;-73
2024/01/11 03:16:26;;;;;;;15.00;9.60;;;;;;;-1.07;100.00;100964.19;105799;1253;71356;-73
2024/01/11 03:18:55;;;;;;;13.00;8.50;;;;;;;-1.09;100.00;100959.23;105672;1255;60378;-70
2024/01/11 03:21:22;;;;;;;12.30;7.60;;;;;;;-1.09;100.00;100959.06;105670;1258;60079;-71
2024/01/11 03:23:50;;;;;;;12.80;8.10;;;;;;;-1.09;100.00;100954.23;105723;1254;71813;-71
2024/01/11 03:26:17;;;;;;;13.70;9.10;;;;;;;-1.11;100.00;100948.08;105806;1253;63540;-72
2024/01/11 03:28:45;;;;;;;12.40;8.20;;;;;;;-1.12;100.00;100939.67;105784;1255;71412;-73
2024/01/11 03:31:12;;;;;;;11.90;7.90;;;;;;;-1.15;100.00;100937.64;105745;1251;60104;-74
2024/01/11 03:33:40;;;;;;;10.70;7.60;;;;;;;-1.20;100.00;100926.36;105727;1256;59644;-73
2024/01/11 03:36:09;;;;;;;10.90;7.20;;;;;;;-1.23;100.00;100913.00;105849;1253;71888;-75
2024/01/11 03:38:37;;;;;;;9.30;6.30;;;;;;;-1.24;100.00;100902.89;105680;1256;62672;-72
2024/01/11 03:41:09;;;;;;;10.70;7.70;;;;;;;-1.25;100.00;100895.85;105939;1252;72641;-74
2024/01/11 03:43:37;;;;;;;11.10;7.00;;;;;;;-1.25;100.00;100897.91;105715;1256;59885;-75
2024/01/11 03:46:04;;;;;;;8.80;7.40;;;;;;;-1.28;100.00;100892.27;105689;1256;59675;-72
2024/01/11 03:48:32;;;;;;;10.40;6.90;;;;;;;-1.25;100.00;100889.52;105657;1255;71697;-74
2024/01/11 03:51:00;;;;;;;8.30;6.70;;;;;;;-1.20;100.00;100886.91;105687;1253;62835;-75
2024/01/11 03:53:28;;;;;;;9.50;6.60;;;;;;;-1.19;100.00;100894.78;105744;1253;72656;-72
2024/01/11 03:55:58;;;;;;;10.80;7.50;;;;;;;-1.19;100.00;100891.02;105781;1256;59864;-73
2024/01/11 03:58:26;;;;;;;8.70;6.40;;;;;;;-1.18;100.00;100890.15;105852;1253;59814;-74
2024/01/11 04:00:54;;;;;;;10.30;7.50;;;;;;;-1.21;100.00;100880.73;105895;1256;72827;-73
2024/01/11 04:03:22;;;;;;;11.10;7.00;;;;;;;-1.25;100.00;100878.54;105682;1256;62285;-74
2024/01/11 04:05:50;;;;;;;7.00;5.70;;;;;;;-1.27;100.00;100869.30;105685;1256;72729;-74
2024/01/11 04:08:17;;;;;;;9.70;6.90;;;;;;;-1.29;100.00;100862.61;105681;1253;60932;-75
2024/01/11 04:10:45;;;;;;;10.20;7.50;;;;;;;-1.30;100.00;100853.20;105708;1256;59715;-72
2024/01/11 04:13:12;;;;;;;10.50;6.10;;;;;;;-1.30;100.00;100844.95;105606;1253;73011;-75
2024/01/11 04:15:40;;;;;;;8.40;6.80;;;;;;;-1.30;100.00;100842.91;105737;1256;62250;-75
2024/01/11 04:18:07;;;;;;;11.70;7.50;;;;;;;-1.30;100.00;100834.15;105799;1251;73204;-73
2024/01/11 04:20:35;;;;;;;10.20;6.80;;;;;;;-1.29;100.00;100829.17;105680;1256;61798;-73
2024/01/11 04:23:03;;;;;;;13.00;6.60;;;;;;;-1.28;100.00;100825.91;105784;1256;59675;-75
2024/01/11 04:25:31;;;;;;;9.20;6.80;;;;;;;-1.27;100.00;100817.16;105832;1258;72447;-73
2024/01/11 04:27:59;;;;;;;11.50;7.70;;;;;;;-1.26;100.00;100811.31;105895;1257;63569;-73
2024/01/11 04:30:28;;;;;;;9.80;7.40;;;;;;;-1.31;100.00;100806.39;105786;1257;73381;-75
2024/01/11 04:32:56;;;;;;;8.30;6.00;;;;;;;-1.37;100.00;100805.06;105749;1255;60874;-74
2024/01/11 04:35:23;;;;;;;11.20;6.60;;;;;;;-1.42;100.00;100811.78;105922;1251;60359;-74
2024/01/11 04:37:52;;;;;;;11.30;6.50;;;;;;;-1.46;100.00;100815.41;105710;1251;71794;-74
2024/01/11 04:40:19;;;;;;;10.20;6.50;;;;;;;-1.48;100.00;100817.65;105672;1257;63539;-72
2024/01/11 04:42:47;;;;;;;12.50;7.20;;;;;;;-1.47;100.00;100812.52;105864;1257;72468;-73
2024/01/11 04:45:15;;;;;;;9.00;6.40;;;;;;;-1.44;100.00;100813.36;105734;1255;59734;-73
2024/01/11 04:47:43;;;;;;;10.20;6.30;;;;;;;-1.44;100.00;100820.02;106229;1257;59571;-74
2024/01/11 04:50:11;;;;;;;11.10;6.70;;;;;;;-1.43;100.00;100816.25;105851;1252;71628;-74
2024/01/11 04:52:38;;;;;;;10.10;6.40;;;;;;;-1.44;100.00;100812.84;105842;1254;63768;-73
2024/01/11 04:55:06;;;;;;;9.20;6.10;;;;;;;-1.46;100.00;100808.04;105804;1253;71387;-74
2024/01/11 04:57:34;;;;;;;9.00;5.90;;;;;;;-1.49;100.00;100800.85;105845;1257;59931;-73
2024/01/11 05:00:05;;;;;;;9.30;7.40;;;;;;;-1.53;100.00;100796.09;105732;1259;59924;-74
2024/01/11 05:02:33;;;;;;;9.90;5.40;;;;;;;-1.59;100.00;100788.77;105752;1258;75119;-74
2024/01/11 05:05:00;;;;;;;8.90;5.70;;;;;;;-1.63;100.00;100780.23;105800;1258;63787;-71
2024/01/11 05:07:28;;;;;;;8.00;5.90;;;;;;;-1.68;100.00;100772.04;105757;1256;72935;-73
2024/01/11 05:09:55;;;;;;;10.70;6.10;;;;;;;-1.73;100.00;100763.50;105701;1251;59762;-72
2024/01/11 05:12:23;;;;;;;7.70;5.00;;;;;;;-1.78;100.00;100754.11;105703;1257;59657;-72
2024/01/11 05:14:51;;;;;;;8.40;5.50;;;;;;;-1.83;100.00;100743.19;105706;1257;72411;-73
2024/01/11 05:17:19;;;;;;;10.50;6.00;;;;;;;-1.86;100.00;100737.89;105794;1256;62727;-71
2024/01/11 05:19:47;;;;;;;13.20;6.70;;;;;;;-1.88;100.00;100730.88;105706;1255;71396;-74
2024/01/11 05:22:14;;;;;;;8.40;5.80;;;;;;;-1.92;100.00;100721.83;105721;1256;60414;-74
2024/01/11 05:24:42;;;;;;;9.20;5.90;;;;;;;-1.96;100.00;100721.36;105776;1257;60005;-75
2024/01/11 05:27:09;;;;;;;6.20;4.50;;;;;;;-1.98;100.00;100717.23;105763;1251;72503;-74
2024/01/11 05:29:37;;;;;;;9.90;5.70;;;;;;;-1.97;100.00;100711.93;105860;1259;63526;-74
2024/01/11 05:32:05;;;;;;;8.50;5.70;;;;;;;-1.98;100.00;100712.27;105757;1256;72504;-74
2024/01/11 05:34:33;;;;;;;9.50;6.10;;;;;;;-1.98;100.00;100708.67;105789;1257;60958;-74
2024/01/11 05:37:01;;;;;;;6.80;5.30;;;;;;;-1.95;100.00;100699.92;105720;1258;59743;-75
2024/01/11 05:39:29;;;;;;;10.10;6.30;;;;;;;-1.90;100.00;100689.25;105647;1256;73605;-75
2024/01/11 05:41:56;;;;;;;8.50;5.80;;;;;;;-1.92;100.00;100684.83;105766;1258;63566;-75
2024/01/11 05:44:24;;;;;;;8.60;5.70;;;;;;;-1.97;100.00;100679.89;105727;1254;72529;-75
2024/01/11 05:46:52;;;;;;;12.00;6.80;;;;;;;-2.02;100.00;100675.30;105795;1256;59660;-74
2024/01/11 05:49:19;;;;;;;8.20;5.30;;;;;;;-2.03;100.00;100672.73;105764;1258;59549;-76
2024/01/11 05:51:50;;;;;;;12.40;7.30;;;;;;;-2.04;100.00;100667.10;105872;1251;71780;-74
2024/01/11 05:54:17;;;;;;;13.80;7.00;;;;;;;-2.04;100.00;100672.08;105759;1265;63699;-76
2024/01/11 05:56:45;;;;;;;8.20;6.10;;;;;;;-2.05;100.00;100670.70;105763;1256;71462;-74
2024/01/11 05:59:12;;;;;;;11.40;6.00;;;;;;;-2.02;100.00;100668.62;105726;1258;59768;-75
2024/01/11 06:01:42;;;;;;;12.40;7.00;;;;;;;-1.96;100.00;100667.37;105952;1266;59653;-74
2024/01/11 06:04:10;;;;;;;11.00;7.00;;;;;;;-1.88;100.00;100662.52;105933;1257;74747;-74
2024/01/11 06:06:37;;;;;;;11.30;6.60;;;;;;;-1.82;100.00;100661.61;105938;1253;62400;-74
2024/01/11 06:09:06;;;;;;;8.80;6.50;;;;;;;-1.77;100.00;100663.79;105950;1256;75346;-74
2024/01/11 06:11:33;;;;;;;8.70;6.10;;;;;;;-1.73;100.00;100656.55;105811;1256;59740;-73
2024/01/11 06:14:01;;;;;;;12.00;7.30;;;;;;;-1.70;100.00;100653.63;105950;1266;59946;-74
2024/01/11 06:16:28;;;;;;;8.70;6.10;;;;;;;-1.64;100.00;100649.98;105898;1253;71852;-75
2024/01/11 06:18:58;;;;;;;9.60;6.40;;;;;;;-1.66;100.00;100645.18;105785;1251;62294;-73
2024/01/11 06:21:26;;;;;;;13.00;7.90;;;;;;;-1.69;100.00;100640.92;105856;1264;72409;-76
2024/01/11 06:23:54;;;;;;;9.40;6.70;;;;;;;-1.76;100.00;100632.93;105994;1256;61797;-73
2024/01/11 06:26:23;;;;;;;8.30;6.30;;;;;;;-1.80;100.00;100624.41;106259;1258;59810;-73
2024/01/11 06:28:51;;;;;;;12.00;7.60;;;;;;;-1.79;100.00;100612.41;106479;1251;73214;-73
2024/01/11 06:31:21;;;;;;;12.40;7.60;;;;;;;-1.77;100.00;100596.79;106826;1251;62843;-72
2024/01/11 06:33:49;;;;;;;13.50;7.50;;;;;;;-1.74;100.00;100600.36;109151;1254;71133;-72
2024/01/11 06:36:18;;;;;;;10.70;7.10;;;;;;;-1.71;100.00;100599.14;107637;1256;60521;-74
2024/01/11 06:38:45;;;;;;;12.50;6.70;;;;;;;-1.71;100.00;100597.41;105757;1266;62262;-74
2024/01/11 06:41:14;;;;;;;13.00;7.80;;;;;;;-1.68;100.00;100593.96;105776;1260;72604;-74
2024/01/11 06:56:15;;;;;;;11.80;6.60;;;;;;;-1.75;100.00;100584.79;102803;1292;600211;-74
2024/01/11 06:58:43;;;;;;;12.00;7.40;;;;;;;-1.78;100.00;100583.27;105150;1265;59641;-74
2024/01/11 07:01:11;;;;;;;12.00;7.80;;;;;;;-1.76;100.00;100579.98;104941;1270;59282;-75
2024/01/11 07:03:38;;;;;;;13.30;7.30;;;;;;;-1.73;100.00;100579.10;104852;1272;71840;-75
2024/01/11 07:06:06;;;;;;;10.30;6.50;;;;;;;-1.69;100.00;100582.48;104854;1263;62598;-75
2024/01/11 07:08:34;;;;;;;9.70;6.40;;;;;;;-1.63;100.00;100578.32;104774;1273;73308;-75
2024/01/11 07:11:02;;;;;;;8.80;6.30;;;;;;;-1.60;100.00;100574.33;104932;1267;176120;-75
2024/01/11 07:13:31;;;;;;;7.50;5.40;;;;;;;-1.59;100.00;100560.96;105295;1268;62010;-72
2024/01/11 07:15:59;;;;;;;10.20;6.10;;;;;;;-1.60;100.00;100566.80;105263;1267;70770;-74
2024/01/11 07:18:26;;;;;;;11.20;7.20;;;;;;;-1.60;100.00;100565.77;105125;1263;64208;-75
2024/01/11 07:20:56;;;;;;;10.00;7.10;;;;;;;-1.59;100.00;100564.39;105180;1263;73889;-75
2024/01/11 07:23:24;;;;;;;12.30;7.40;;;;;;;-1.58;100.00;100552.72;104967;1263;59641;-74
2024/01/11 07:25:51;;;;;;;10.50;6.60;;;;;;;-1.59;100.00;100545.19;105285;1262;59625;-75
2024/01/11 07:28:19;;;;;;;11.10;7.60;;;;;;;-1.61;100.00;100539.05;105575;1257;71744;-76
2024/01/11 07:30:47;;;;;;;10.80;6.30;;;;;;;-1.61;100.00;100534.25;105584;1254;62491;-74
2024/01/11 07:33:14;;;;;;;11.10;7.20;;;;;;;-1.65;100.00;100527.95;105416;1261;72401;-75
2024/01/11 07:35:42;;;;;;;10.10;6.70;;;;;;;-1.66;100.00;100516.31;106213;1256;60573;-74
2024/01/11 07:38:10;;;;;;;9.50;6.70;;;;;;;-1.64;100.00;100508.92;106125;1250;61270;-74
2024/01/11 07:40:38;;;;;;;10.20;6.80;;;;;;;-1.64;100.00;100500.87;105868;1251;71505;-74
2024/01/11 07:55:54;;;;;;;8.20;5.70;;;;;;;-1.46;100.00;100483.48;102978;1292;600796;-75
2024/01/11 07:58:23;;;;;;;7.80;5.60;;;;;;;-1.47;100.00;100475.61;104868;1270;61439;-76
2024/01/11 08:00:50;;;;;;;8.90;6.30;;;;;;;-1.43;100.00;100466.31;104694;1269;60215;-75
2024/01/11 08:03:17;;;;;;;9.70;7.00;;;;;;;-1.40;100.00;100463.86;104869;1267;72241;-76
2024/01/11 08:05:46;;;;;;;10.50;6.70;;;;;;;-1.37;100.00;100463.83;104844;1270;61584;-76
2024/01/11 08:08:13;;;;;;;9.30;7.10;;;;;;;-1.31;100.00;100462.04;104916;1271;72591;-75
2024/01/11 08:10:42;;;;;;;10.00;6.60;;;;;;;-1.20;100.00;100457.58;104782;1268;189492;-75
2024/01/11 08:13:10;;;;;;;12.80;9.00;;;;;;;-1.11;100.00;100463.12;105047;1264;59791;-75
2024/01/11 08:15:38;;;;;;;12.60;8.40;;;;;;;-1.10;100.00;100462.58;105260;1264;74602;-74
2024/01/11 08:18:05;;;;;;;11.00;7.30;;;;;;;-1.10;100.00;100459.50;105059;1268;62567;-73
2024/01/11 08:20:33;;;;;;;13.40;8.60;;;;;;;-1.12;100.00;100456.44;105037;1264;72732;-74
2024/01/11 08:23:00;;;;;;;18.60;7.90;;;;;;;-1.11;100.00;100461.75;105065;1264;62157;-73
2024/01/11 08:25:28;;;;;;;14.60;8.10;;;;;;;-1.12;100.00;100457.98;105112;1269;59654;-74
2024/01/11 08:27:55;;;;;;;11.60;7.40;;;;;;;-1.14;100.00;100454.41;104983;1264;71711;-74
2024/01/11 08:30:26;;;;;;;13.80;8.20;;;;;;;-1.12;100.00;100443.23;105571;1254;62622;-75
2024/01/11 08:32:57;;;;;;;15.00;9.10;;;;;;;-1.08;100.00;100437.34;105494;1260;73433;-74
2024/01/11 08:35:26;;;;;;;13.70;8.10;;;;;;;-1.05;100.00;100433.86;106053;1254;59640;-73
2024/01/11 08:37:54;;;;;;;12.40;8.80;;;;;;;-1.02;100.00;100430.73;106086;1261;59995;-74
2024/01/11 08:40:22;;;;;;;16.90;9.80;;;;;;;-1.02;100.00;100419.25;105734;1254;73600;-75
2024/01/11 08:42:49;;;;;;;17.00;10.60;;;;;;;-1.00;100.00;100407.54;105571;1254;61498;-74
2024/01/11 08:45:17;;;;;;;15.40;9.70;;;;;;;-1.00;100.00;100404.96;105619;1255;72821;-74
2024/01/11 08:47:46;;;;;;;15.40;9.80;;;;;;;-1.03;100.00;100396.45;105522;1259;61041;-74
2024/01/11 08:50:14;;;;;;;16.50;9.70;;;;;;;-1.06;100.00;100393.91;105735;1254;60202;-75
2024/01/11 08:52:42;;;;;;;15.40;9.50;;;;;;;-1.08;100.00;100392.39;105650;1258;71942;-75
2024/01/11 08:55:10;;;;;;;14.50;9.10;;;;;;;-1.13;100.00;100379.44;105661;1253;62843;-76
2024/01/11 08:57:37;;;;;;;14.00;9.10;;;;;;;-1.13;100.00;100370.52;105737;1256;72328;-75
2024/01/11 09:00:08;;;;;;;14.90;10.30;;;;;;;-1.09;100.00;100366.85;105579;1256;60293;-74
2024/01/11 09:02:36;;;;;;;17.90;11.50;;;;;;;-1.07;100.00;100364.24;105577;1254;59791;-74
2024/01/11 09:05:07;;;;;;;16.00;9.60;;;;;;;-1.07;100.00;100354.14;105588;1254;71796;-74
2024/01/11 09:07:36;;;;;;;15.80;10.70;;;;;;;-1.06;100.00;100348.63;105632;1253;62077;-74
2024/01/11 09:10:04;;;;;;;16.50;9.90;;;;;;;-1.06;100.00;100346.55;105581;1259;73056;-75
2024/01/11 09:12:33;;;;;;;17.90;11.00;;;;;;;-1.02;100.00;100347.88;105667;1260;59867;-74
2024/01/11 09:15:01;;;;;;;16.70;10.80;;;;;;;-1.00;100.00;100343.55;105617;1254;60147;-73
2024/01/11 09:17:29;;;;;;;18.20;11.10;;;;;;;-1.00;100.00;100340.45;105493;1253;71466;-74
2024/01/11 09:19:56;;;;;;;20.80;10.00;;;;;;;-1.04;100.00;100333.14;105540;1254;64670;-76
2024/01/11 09:22:25;;;;;;;18.30;11.00;;;;;;;-1.08;100.00;100328.58;105655;1256;71244;-75
2024/01/11 09:24:53;;;;;;;23.60;13.90;;;;;;;-1.12;100.00;100324.54;105432;1254;60200;-74
2024/01/11 09:27:22;;;;;;;18.50;11.30;;;;;;;-1.14;100.00;100317.89;105605;1259;59660;-74
2024/01/11 09:29:50;;;;;;;19.10;11.00;;;;;;;-1.19;100.00;100314.36;105526;1259;72848;-73
2024/01/11 09:32:22;;;;;;;21.10;11.80;;;;;;;-1.23;100.00;100304.64;105718;1254;66157;-75
2024/01/11 09:34:51;;;;;;;18.20;11.20;;;;;;;-1.22;100.00;100298.81;105648;1256;71005;-74
2024/01/11 09:37:18;;;;;;;20.40;13.10;;;;;;;-1.18;100.00;100295.99;105646;1254;60878;-75
2024/01/11 09:39:46;;;;;;;19.50;12.30;;;;;;;-1.13;100.00;100296.60;105519;1254;60084;-74
2024/01/11 09:42:16;;;;;;;22.70;14.20;;;;;;;-1.09;100.00;100294.30;105661;1259;71858;-74
2024/01/11 09:44:44;;;;;;;20.80;13.10;;;;;;;-1.07;100.00;100288.59;105609;1259;66380;-75
2024/01/11 09:47:12;;;;;;;24.20;14.60;;;;;;;-1.06;100.00;100289.77;105584;1255;73291;-74
2024/01/11 09:49:46;;;;;;;23.80;13.30;;;;;;;-0.98;100.00;100292.89;105586;1253;59733;-74
2024/01/11 09:52:14;;;;;;;17.30;11.10;;;;;;;-0.94;100.00;100307.58;105571;1254;60287;-75
2024/01/11 09:54:42;;;;;;;21.00;13.20;;;;;;;-0.95;100.00;100312.05;105508;1258;72892;-75
2024/01/11 09:57:10;;;;;;;16.50;10.70;;;;;;;-0.99;100.00;100306.46;105571;1259;63109;-74
2024/01/11 09:59:37;;;;;;;17.40;11.90;;;;;;;-0.99;100.00;100300.48;105690;1255;70930;-75
2024/01/11 10:02:08;;;;;;;19.60;12.10;;;;;;;-0.99;100.00;100296.52;105365;1253;59682;-74
2024/01/11 10:04:37;;;;;;;18.10;11.40;;;;;;;-0.95;100.00;100300.40;105628;1260;59833;-74
2024/01/11 10:07:06;;;;;;;20.00;12.60;;;;;;;-0.89;100.00;100292.74;105697;1254;71841;-74
2024/01/11 10:09:33;;;;;;;18.10;11.60;;;;;;;-0.78;100.00;100278.98;105321;1259;62829;-74
2024/01/11 10:12:01;;;;;;;19.00;11.90;;;;;;;-0.69;100.00;100272.63;105582;1259;74697;-75
2024/01/11 10:14:30;;;;;;;19.80;12.70;;;;;;;-0.65;100.00;100263.27;105487;1257;59664;-75
2024/01/11 10:16:58;;;;;;;17.80;11.90;;;;;;;-0.58;100.00;100258.00;105466;1259;61648;-76
2024/01/11 10:19:25;;;;;;;24.80;14.20;;;;;;;-0.52;100.00;100253.23;105526;1259;71853;-73
2024/01/11 10:21:54;;;;;;;21.60;12.90;;;;;;;-0.51;100.00;100244.11;105632;1259;65953;-75
2024/01/11 10:24:23;;;;;;;17.80;12.70;;;;;;;-0.47;100.00;100236.14;105972;1254;74106;-73
2024/01/11 10:26:59;;;;;;;23.60;14.00;;;;;;;-0.46;100.00;100230.28;106253;1257;61819;-73
2024/01/11 10:29:30;;;;;;;22.50;14.10;;;;;;;-0.44;100.00;100217.70;107039;1253;62549;-72
2024/01/11 10:31:58;;;;;;;22.10;13.50;;;;;;;-0.39;100.00;100199.73;108802;1253;74284;-71
2024/01/11 10:34:25;;;;;;;26.80;15.90;;;;;;;-0.33;100.00;100188.25;107225;1253;64683;-74
2024/01/11 10:36:53;;;;;;;22.80;15.00;;;;;;;-0.27;100.00;100182.99;105562;1257;71081;-75
2024/01/11 10:39:24;;;;;;;22.70;14.90;;;;;;;-0.26;100.00;100183.64;105792;1253;63013;-75
2024/01/11 10:42:13;;;;;;;21.50;13.60;;;;;;;-0.26;100.00;100175.40;105886;1254;60787;-75
2024/01/11 10:44:40;;;;;;;29.30;17.10;;;;;;;-0.27;100.00;100171.63;105601;1253;72889;-74
2024/01/11 10:47:11;;;;;;;24.40;14.80;;;;;;;-0.25;100.00;100165.06;105775;1254;62488;-75
2024/01/11 14:44:19;;;;;;;36.60;21.70;;;;;;;0.12;100.00;99936.30;102725;1290;601105;-75
2024/01/11 14:46:46;;;;;;;36.30;21.70;;;;;;;0.09;100.00;99922.96;104934;1269;60607;-76
2024/01/11 14:49:14;;;;;;;36.20;21.30;;;;;;;0.09;100.00;99921.60;105089;1264;60350;-75
2024/01/11 14:51:42;;;;;;;35.60;22.70;;;;;;;0.08;100.00;99921.10;104993;1264;74904;-74
2024/01/11 14:54:09;;;;;;;39.50;23.60;;;;;;;0.08;100.00;99920.96;105106;1264;63705;-75
2024/01/11 14:56:37;;;;;;;37.30;22.70;;;;;;;0.07;100.00;99920.63;105453;1263;73725;-75
2024/01/11 14:59:05;;;;;;;39.00;23.30;;;;;;;0.07;100.00;99912.21;105741;1257;178110;-75
2024/01/11 15:01:33;;;;;;;38.00;22.90;;;;;;;0.08;100.00;99911.14;106006;1254;60884;-75
2024/01/11 15:04:01;;;;;;;40.80;23.30;;;;;;;0.06;100.00;99914.64;105781;1254;73764;-75
2024/01/11 15:06:29;;;;;;;37.30;22.90;;;;;;;0.04;100.00;99910.58;105926;1257;62736;-73
2024/01/11 15:08:56;;;;;;;35.90;22.30;;;;;;;0.03;100.00;99909.25;105791;1256;72630;-75
2024/01/11 15:11:25;;;;;;;34.00;20.20;;;;;;;0.01;100.00;99909.82;105762;1254;60616;-74
2024/01/11 15:13:53;;;;;;;32.30;20.90;;;;;;;-0.02;100.00;99906.61;105933;1254;60225;-74
2024/01/11 15:16:20;;;;;;;31.30;19.00;;;;;;;-0.06;100.00;99901.73;105607;1253;72826;-75
2024/01/11 15:18:48;;;;;;;35.80;20.60;;;;;;;-0.05;100.00;99899.30;105850;1257;62625;-75
2024/01/11 15:21:16;;;;;;;30.00;19.40;;;;;;;-0.04;100.00;99894.82;105902;1253;71104;-73
2024/01/11 15:23:44;;;;;;;31.40;19.00;;;;;;;-0.05;100.00;99896.04;105743;1254;60299;-76
2024/01/11 15:26:12;;;;;;;31.30;19.50;;;;;;;-0.06;100.00;99897.98;105947;1257;61158;-74
2024/01/11 15:28:40;;;;;;;33.10;19.70;;;;;;;-0.07;100.00;99898.18;105794;1255;72230;-75
2024/01/11 15:31:07;;;;;;;38.60;21.40;;;;;;;-0.09;100.00;99890.14;105791;1253;62168;-75
2024/01/11 15:33:35;;;;;;;36.30;22.30;;;;;;;-0.09;100.00;99894.63;105835;1257;72595;-75
2024/01/11 15:36:04;;;;;;;35.50;21.00;;;;;;;-0.14;100.00;99898.04;105759;1257;60431;-75
2024/01/11 15:38:32;;;;;;;32.70;19.70;;;;;;;-0.18;100.00;99896.91;105819;1255;62141;-76
2024/01/11 15:41:00;;;;;;;41.10;23.30;;;;;;;-0.20;100.00;99897.50;105693;1257;73189;-75
2024/01/11 15:43:27;;;;;;;39.70;23.60;;;;;;;-0.18;100.00;99896.94;105771;1257;62196;-74
2024/01/11 15:45:55;;;;;;;40.20;22.50;;;;;;;-0.15;100.00;99899.61;106096;1254;73791;-74
2024/01/11 15:48:22;;;;;;;37.20;23.50;;;;;;;-0.12;100.00;99900.72;105830;1260;62551;-73
2024/01/11 15:50:54;;;;;;;34.40;21.10;;;;;;;-0.07;100.00;99898.69;105825;1252;59850;-74
2024/01/11 15:53:23;;;;;;;51.10;23.30;;;;;;;-0.05;100.00;99896.73;105773;1254;73975;-75
2024/01/11 15:55:50;;;;;;;48.40;24.30;;;;;;;-0.07;100.00;99900.74;105941;1257;66044;-74
2024/01/11 15:58:19;;;;;;;42.80;25.50;;;;;;;-0.08;100.00;99904.55;105941;1254;72540;-75
2024/01/11 16:00:47;;;;;;;37.60;23.50;;;;;;;-0.09;100.00;99904.75;105932;1251;60274;-76
2024/01/11 16:03:15;;;;;;;36.50;21.50;;;;;;;-0.11;100.00;99899.82;105954;1256;59522;-75
2024/01/11 16:05:43;;;;;;;40.20;23.60;;;;;;;-0.12;100.00;99892.13;105914;1251;73367;-75
2024/01/11 16:08:11;;;;;;;45.50;25.30;;;;;;;-0.11;100.00;99891.76;106125;1251;62448;-74
2024/01/11 16:10:39;;;;;;;43.30;23.20;;;;;;;-0.11;100.00;99886.42;106397;1254;74054;-73
2024/01/11 16:13:07;;;;;;;39.10;23.70;;;;;;;-0.08;100.00;99883.77;106141;1256;62330;-74
2024/01/11 16:15:35;;;;;;;44.90;26.30;;;;;;;-0.05;100.00;99884.86;105886;1250;59713;-74
2024/01/11 16:18:04;;;;;;;43.50;25.50;;;;;;;-0.01;100.00;99877.71;106091;1252;72328;-75
2024/01/11 16:20:32;;;;;;;45.30;27.60;;;;;;;0.05;100.00;99872.23;105907;1256;66091;-75
2024/01/11 16:23:01;;;;;;;44.00;24.80;;;;;;;0.11;100.00;99874.13;105890;1251;74374;-75
2024/01/11 16:25:31;;;;;;;48.00;25.70;;;;;;;0.13;100.00;99876.11;105864;1255;59753;-75
2024/01/11 16:27:58;;;;;;;38.60;23.00;;;;;;;0.13;100.00;99871.98;106059;1251;59813;-76
2024/01/11 16:30:26;;;;;;;40.00;24.30;;;;;;;0.14;100.00;99872.64;105941;1255;75167;-75